Time,TemperatureF,DewpointF,PressureIn,WindDirection,WindDirectionDegrees,WindSpeedMPH,WindSpeedGustMPH,Humidity,HourlyPrecipIn,Conditions,Clouds,dailyrainin,SoftwareType,DateUTC
2013-03-07 00:00:00,46.6,33.5,30.23,ESE,103,0.0,0.0,60,0.00,,,0.00,WeatherCatV1.14B232,2013-03-07 06:00:00,
2013-03-07 00:05:00,46.5,33.4,30.23,ESE,103,0.0,0.0,60,0.00,,,0.00,WeatherCatV1.14B232,2013-03-07 06:05:00,
2013-03-07 00:10:00,46.1,33.0,30.23,ESE,103,0.0,0.0,60,0.00,,,0.00,WeatherCatV1.14B232,2013-03-07 06:10:00,
2013-03-07 00:15:00,45.9,33.6,30.23,ESE,103,0.0,0.0,62,0.00,,,0.00,WeatherCatV1.14B232,2013-03-07 06:15:00,
2013-03-07 00:20:00,45.7,33.4,30.23,ESE,103,0.0,0.0,62,0.00,,,0.00,WeatherCatV1.14B232,2013-03-07 06:20:00,
2013-03-07 00:25:00,45.4,33.6,30.22,ESE,103,0.0,1.0,63,0.00,,,0.00,WeatherCatV1.14B232,2013-03-07 06:25:00,
2013-03-07 00:30:00,45.2,33.4,30.22,ESE,103,0.0,0.0,63,0.00,,,0.00,WeatherCatV1.14B232,2013-03-07 06:30:00,
2013-03-07 00:35:00,45.0,33.6,30.23,ESE,103,0.0,0.0,64,0.00,,,0.00,WeatherCatV1.14B232,2013-03-07 06:35:00,
2013-03-07 00:40:00,44.8,33.8,30.22,ESE,103,0.0,0.0,65,0.00,,,0.00,WeatherCatV1.14B232,2013-03-07 06:40:00,
2013-03-07 00:45:00,44.5,33.5,30.23,ESE,103,0.0,0.0,65,0.00,,,0.00,WeatherCatV1.14B232,2013-03-07 06:45:00,
2013-03-07 00:50:00,44.3,33.7,30.22,ESE,103,0.0,0.0,66,0.00,,,0.00,WeatherCatV1.14B232,2013-03-07 06:50:00,
2013-03-07 00:55:00,44.2,33.9,30.22,ESE,103,0.0,0.0,67,0.00,,,0.00,WeatherCatV1.14B232,2013-03-07 06:55:00,
2013-03-07 01:00:00,44.0,33.8,30.21,ESE,103,0.0,0.0,67,0.00,,,0.00,WeatherCatV1.14B232,2013-03-07 07:00:00,
2013-03-07 01:05:00,44.1,34.6,30.21,ESE,103,0.0,1.0,69,0.00,,,0.00,WeatherCatV1.14B232,2013-03-07 07:05:00,
2013-03-07 01:10:00,44.0,34.5,30.22,ESE,103,0.0,0.0,69,0.00,,,0.00,WeatherCatV1.14B232,2013-03-07 07:10:00,
2013-03-07 01:15:00,43.8,34.7,30.22,ESE,103,0.0,0.0,70,0.00,,,0.00,WeatherCatV1.14B232,2013-03-07 07:15:00,
2013-03-07 01:20:00,43.7,34.6,30.22,ESE,103,0.0,0.0,70,0.00,,,0.00,WeatherCatV1.14B232,2013-03-07 07:20:00,
2013-03-07 01:25:00,43.8,35.0,30.22,ESE,103,0.0,0.0,71,0.00,,,0.00,WeatherCatV1.14B232,2013-03-07 07:25:00,
2013-03-07 01:30:00,43.7,35.3,30.21,ESE,103,0.0,0.0,72,0.00,,,0.00,WeatherCatV1.14B232,2013-03-07 07:30:00,
2013-03-07 01:35:00,43.7,35.3,30.21,ESE,103,0.0,1.0,72,0.00,,,0.00,WeatherCatV1.14B232,2013-03-07 07:35:00,
2013-03-07 01:38:00,43.7,35.3,30.21,ESE,103,0.0,0.0,72,0.00,,,0.00,WeatherCatV1.14B232,2013-03-07 07:38:00,
2013-03-07 01:40:00,40.3,33.3,30.18,ESE,103,0.0,0.0,76,0.00,,,0.00,WeatherCatV1.24B11,2013-03-07 07:40:00,
2013-03-07 01:43:00,43.6,35.5,30.21,ESE,103,0.0,0.0,73,0.00,,,0.00,WeatherCatV1.14B232,2013-03-07 07:43:00,
2013-03-07 01:45:00,40.1,33.2,30.18,ESE,103,0.0,0.0,76,0.00,,,0.00,WeatherCatV1.24B11,2013-03-07 07:45:00,
2013-03-07 01:48:00,43.7,36.0,30.21,ESE,103,0.0,1.0,74,0.00,,,0.00,WeatherCatV1.14B232,2013-03-07 07:48:00,
2013-03-07 01:50:00,39.9,33.3,30.18,ESE,103,0.0,0.0,77,0.00,,,0.00,WeatherCatV1.24B11,2013-03-07 07:50:00,
2013-03-07 01:53:00,43.7,36.0,30.21,ESE,103,0.0,0.0,74,0.00,,,0.00,WeatherCatV1.14B232,2013-03-07 07:53:00,
2013-03-07 01:55:00,39.7,33.1,30.18,ESE,103,0.0,0.0,77,0.00,,,0.00,WeatherCatV1.24B11,2013-03-07 07:55:00,
2013-03-07 01:58:00,43.6,35.9,30.21,ESE,103,0.0,0.0,74,0.00,,,0.00,WeatherCatV1.14B232,2013-03-07 07:58:00,
2013-03-07 02:00:00,39.5,32.9,30.17,ESE,103,0.0,0.0,77,0.00,,,0.00,WeatherCatV1.24B11,2013-03-07 08:00:00,
2013-03-07 02:03:00,43.5,36.1,30.21,ESE,103,0.0,0.0,75,0.00,,,0.00,WeatherCatV1.14B232,2013-03-07 08:03:00,
2013-03-07 02:05:00,39.2,32.6,30.17,ESE,103,0.0,0.0,77,0.00,,,0.00,WeatherCatV1.24B11,2013-03-07 08:05:00,
2013-03-07 02:08:00,43.3,35.9,30.20,ESE,103,0.0,0.0,75,0.00,,,0.00,WeatherCatV1.14B232,2013-03-07 08:08:00,
2013-03-07 02:10:00,38.9,32.3,30.17,ESE,103,0.0,0.0,77,0.00,,,0.00,WeatherCatV1.24B11,2013-03-07 08:10:00,
2013-03-07 02:13:00,43.1,35.7,30.20,ESE,103,0.0,0.0,75,0.00,,,0.00,WeatherCatV1.14B232,2013-03-07 08:13:00,
2013-03-07 02:15:00,38.7,32.1,30.17,ESE,103,0.0,0.0,77,0.00,,,0.00,WeatherCatV1.24B11,2013-03-07 08:15:00,
2013-03-07 02:18:00,42.7,35.3,30.19,ESE,103,0.0,0.0,75,0.00,,,0.00,WeatherCatV1.14B232,2013-03-07 08:18:00,
2013-03-07 02:20:00,38.5,31.9,30.17,ESE,103,0.0,0.0,77,0.00,,,0.00,WeatherCatV1.24B11,2013-03-07 08:20:00,
2013-03-07 02:23:00,42.4,35.0,30.19,ESE,103,0.0,0.0,75,0.00,,,0.00,WeatherCatV1.14B232,2013-03-07 08:23:00,
2013-03-07 02:25:00,38.2,32.0,30.17,ESE,103,0.0,0.0,78,0.00,,,0.00,WeatherCatV1.24B11,2013-03-07 08:25:00,
2013-03-07 02:28:00,42.1,34.8,30.19,ESE,103,0.0,0.0,75,0.00,,,0.00,WeatherCatV1.14B232,2013-03-07 08:28:00,
2013-03-07 02:30:00,38.0,32.1,30.17,ESE,103,0.0,0.0,79,0.00,,,0.00,WeatherCatV1.24B11,2013-03-07 08:30:00,
2013-03-07 02:33:00,41.7,34.4,30.19,ESE,103,0.0,0.0,75,0.00,,,0.00,WeatherCatV1.14B232,2013-03-07 08:33:00,
2013-03-07 02:35:00,37.7,31.8,30.17,ESE,103,0.0,0.0,79,0.00,,,0.00,WeatherCatV1.24B11,2013-03-07 08:35:00,
2013-03-07 02:38:00,41.1,33.5,30.19,ESE,103,0.0,0.0,74,0.00,,,0.00,WeatherCatV1.14B232,2013-03-07 08:38:00,
2013-03-07 02:40:00,37.5,31.6,30.16,ESE,103,0.0,0.0,79,0.00,,,0.00,WeatherCatV1.24B11,2013-03-07 08:40:00,
2013-03-07 02:43:00,40.9,33.6,30.19,ESE,103,0.0,0.0,75,0.00,,,0.00,WeatherCatV1.14B232,2013-03-07 08:43:00,
2013-03-07 02:45:00,37.3,31.7,30.16,ESE,103,0.0,0.0,80,0.00,,,0.00,WeatherCatV1.24B11,2013-03-07 08:45:00,
2013-03-07 02:48:00,40.6,33.3,30.18,ESE,103,0.0,0.0,75,0.00,,,0.00,WeatherCatV1.14B232,2013-03-07 08:48:00,
2013-03-07 02:50:00,37.2,31.6,30.15,ESE,103,0.0,0.0,80,0.00,,,0.00,WeatherCatV1.24B11,2013-03-07 08:50:00,
2013-03-07 02:53:00,40.3,33.3,30.18,ESE,103,0.0,0.0,76,0.00,,,0.00,WeatherCatV1.14B232,2013-03-07 08:53:00,
2013-03-07 02:55:00,37.0,31.7,30.15,ESE,103,0.0,0.0,81,0.00,,,0.00,WeatherCatV1.24B11,2013-03-07 08:55:00,
2013-03-07 02:58:00,40.1,33.2,30.18,ESE,103,0.0,0.0,76,0.00,,,0.00,WeatherCatV1.14B232,2013-03-07 08:58:00,
2013-03-07 03:00:00,36.8,31.2,30.15,ESE,103,0.0,0.0,80,0.00,,,0.00,WeatherCatV1.24B11,2013-03-07 09:00:00,
2013-03-07 03:03:00,40.0,33.4,30.18,ESE,103,0.0,0.0,77,0.00,,,0.00,WeatherCatV1.14B232,2013-03-07 09:03:00,
2013-03-07 03:05:00,36.7,31.4,30.15,ESE,103,0.0,0.0,81,0.00,,,0.00,WeatherCatV1.24B11,2013-03-07 09:05:00,
2013-03-07 03:08:00,39.8,33.2,30.18,ESE,103,0.0,0.0,77,0.00,,,0.00,WeatherCatV1.14B232,2013-03-07 09:08:00,
2013-03-07 03:10:00,36.9,31.9,30.15,ESE,103,0.0,0.0,82,0.00,,,0.00,WeatherCatV1.24B11,2013-03-07 09:10:00,
2013-03-07 03:13:00,39.6,33.0,30.18,ESE,103,0.0,0.0,77,0.00,,,0.00,WeatherCatV1.14B232,2013-03-07 09:13:00,
2013-03-07 03:15:00,36.9,31.9,30.15,ESE,103,0.0,0.0,82,0.00,,,0.00,WeatherCatV1.24B11,2013-03-07 09:15:00,
2013-03-07 03:18:00,39.3,32.7,30.17,ESE,103,0.0,0.0,77,0.00,,,0.00,WeatherCatV1.14B232,2013-03-07 09:18:00,
2013-03-07 03:20:00,36.8,31.8,30.15,ESE,103,0.0,0.0,82,0.00,,,0.00,WeatherCatV1.24B11,2013-03-07 09:20:00,
2013-03-07 03:23:00,39.0,32.4,30.17,ESE,103,0.0,0.0,77,0.00,,,0.00,WeatherCatV1.14B232,2013-03-07 09:23:00,
2013-03-07 03:25:00,36.8,32.1,30.15,ESE,103,0.0,0.0,83,0.00,,,0.00,WeatherCatV1.24B11,2013-03-07 09:25:00,
2013-03-07 03:28:00,38.7,32.1,30.17,ESE,103,0.0,0.0,77,0.00,,,0.00,WeatherCatV1.14B232,2013-03-07 09:28:00,
2013-03-07 03:30:00,37.2,32.8,30.15,ESE,103,0.0,0.0,84,0.00,,,0.00,WeatherCatV1.24B11,2013-03-07 09:30:00,
2013-03-07 03:33:00,38.5,31.9,30.17,ESE,103,0.0,0.0,77,0.00,,,0.00,WeatherCatV1.14B232,2013-03-07 09:33:00,
2013-03-07 03:35:00,37.2,32.8,30.15,ESE,103,0.0,0.0,84,0.00,,,0.00,WeatherCatV1.24B11,2013-03-07 09:35:00,
2013-03-07 03:38:00,38.3,32.1,30.17,ESE,103,0.0,0.0,78,0.00,,,0.00,WeatherCatV1.14B232,2013-03-07 09:38:00,
2013-03-07 03:40:00,37.0,32.6,30.16,ESE,103,0.0,0.0,84,0.00,,,0.00,WeatherCatV1.24B11,2013-03-07 09:40:00,
2013-03-07 03:43:00,38.0,32.1,30.17,ESE,103,0.0,0.0,79,0.00,,,0.00,WeatherCatV1.14B232,2013-03-07 09:43:00,
2013-03-07 03:45:00,36.7,32.0,30.16,ESE,103,0.0,0.0,83,0.00,,,0.00,WeatherCatV1.24B11,2013-03-07 09:45:00,
2013-03-07 03:48:00,37.8,31.9,30.17,ESE,103,0.0,0.0,79,0.00,,,0.00,WeatherCatV1.14B232,2013-03-07 09:48:00,
2013-03-07 03:50:00,36.5,31.8,30.16,ESE,103,0.0,0.0,83,0.00,,,0.00,WeatherCatV1.24B11,2013-03-07 09:50:00,
2013-03-07 03:53:00,37.5,31.6,30.16,ESE,103,0.0,0.0,79,0.00,,,0.00,WeatherCatV1.14B232,2013-03-07 09:53:00,
2013-03-07 03:55:00,36.4,32.0,30.16,ESE,103,0.0,0.0,84,0.00,,,0.00,WeatherCatV1.24B11,2013-03-07 09:55:00,
2013-03-07 03:58:00,37.3,31.4,30.16,ESE,103,0.0,0.0,79,0.00,,,0.00,WeatherCatV1.14B232,2013-03-07 09:58:00,
2013-03-07 04:00:00,36.3,32.0,30.16,ESE,103,0.0,0.0,84,0.00,,,0.00,WeatherCatV1.24B11,2013-03-07 10:00:00,
2013-03-07 04:03:00,37.3,31.7,30.15,ESE,103,0.0,0.0,80,0.00,,,0.00,WeatherCatV1.14B232,2013-03-07 10:03:00,
2013-03-07 04:05:00,36.5,32.4,30.17,ESE,103,0.0,0.0,85,0.00,,,0.00,WeatherCatV1.24B11,2013-03-07 10:05:00,
2013-03-07 04:08:00,37.1,31.8,30.15,ESE,103,0.0,0.0,81,0.00,,,0.00,WeatherCatV1.14B232,2013-03-07 10:08:00,
2013-03-07 04:10:00,36.7,32.6,30.17,ESE,103,0.0,0.0,85,0.00,,,0.00,WeatherCatV1.24B11,2013-03-07 10:10:00,
2013-03-07 04:13:00,36.8,31.2,30.15,ESE,103,0.0,0.0,80,0.00,,,0.00,WeatherCatV1.14B232,2013-03-07 10:13:00,
2013-03-07 04:15:00,36.6,32.5,30.17,ESE,103,0.0,0.0,85,0.00,,,0.00,WeatherCatV1.24B11,2013-03-07 10:15:00,
2013-03-07 04:18:00,36.7,31.4,30.15,ESE,103,0.0,0.0,81,0.00,,,0.00,WeatherCatV1.14B232,2013-03-07 10:18:00,
2013-03-07 04:20:00,36.4,32.3,30.17,ESE,103,0.0,0.0,85,0.00,,,0.00,WeatherCatV1.24B11,2013-03-07 10:20:00,
2013-03-07 04:23:00,36.8,31.8,30.15,ESE,103,0.0,0.0,82,0.00,,,0.00,WeatherCatV1.14B232,2013-03-07 10:23:00,
2013-03-07 04:25:00,36.4,32.3,30.17,ESE,103,0.0,0.0,85,0.00,,,0.00,WeatherCatV1.24B11,2013-03-07 10:25:00,
2013-03-07 04:28:00,36.9,31.9,30.15,ESE,103,0.0,0.0,82,0.00,,,0.00,WeatherCatV1.14B232,2013-03-07 10:28:00,
2013-03-07 04:30:00,36.5,32.4,30.17,ESE,103,0.0,0.0,85,0.00,,,0.00,WeatherCatV1.24B11,2013-03-07 10:30:00,
2013-03-07 04:33:00,36.8,31.8,30.15,ESE,103,0.0,0.0,82,0.00,,,0.00,WeatherCatV1.14B232,2013-03-07 10:33:00,
2013-03-07 04:35:00,36.4,32.3,30.17,ESE,103,0.0,0.0,85,0.00,,,0.00,WeatherCatV1.24B11,2013-03-07 10:35:00,
2013-03-07 04:38:00,36.8,31.8,30.15,ESE,103,0.0,0.0,82,0.00,,,0.00,WeatherCatV1.14B232,2013-03-07 10:38:00,
2013-03-07 04:40:00,36.3,32.2,30.17,ESE,103,0.0,0.0,85,0.00,,,0.00,WeatherCatV1.24B11,2013-03-07 10:40:00,
2013-03-07 04:43:00,37.1,32.7,30.15,ESE,103,0.0,0.0,84,0.00,,,0.00,WeatherCatV1.14B232,2013-03-07 10:43:00,
2013-03-07 04:45:00,36.1,32.0,30.17,ESE,103,0.0,0.0,85,0.00,,,0.00,WeatherCatV1.24B11,2013-03-07 10:45:00,
2013-03-07 04:48:00,37.3,32.9,30.15,ESE,103,0.0,0.0,84,0.00,,,0.00,WeatherCatV1.14B232,2013-03-07 10:48:00,
2013-03-07 04:50:00,35.9,31.8,30.17,ESE,103,0.0,0.0,85,0.00,,,0.00,WeatherCatV1.24B11,2013-03-07 10:50:00,
2013-03-07 04:53:00,37.1,32.7,30.16,ESE,103,0.0,0.0,84,0.00,,,0.00,WeatherCatV1.14B232,2013-03-07 10:53:00,
2013-03-07 04:55:00,35.8,31.8,30.17,ESE,103,0.0,0.0,85,0.00,,,0.00,WeatherCatV1.24B11,2013-03-07 10:55:00,
2013-03-07 04:58:00,36.9,32.2,30.16,ESE,103,0.0,0.0,83,0.00,,,0.00,WeatherCatV1.14B232,2013-03-07 10:58:00,
2013-03-07 05:00:00,35.7,31.6,30.17,ESE,103,0.0,0.0,85,0.00,,,0.00,WeatherCatV1.24B11,2013-03-07 11:00:00,
2013-03-07 05:03:00,36.6,31.9,30.16,ESE,103,0.0,0.0,83,0.00,,,0.00,WeatherCatV1.14B232,2013-03-07 11:03:00,
2013-03-07 05:05:00,35.6,31.5,30.18,ESE,103,0.0,0.0,85,0.00,,,0.00,WeatherCatV1.24B11,2013-03-07 11:05:00,
2013-03-07 05:08:00,36.4,32.0,30.16,ESE,103,0.0,0.0,84,0.00,,,0.00,WeatherCatV1.14B232,2013-03-07 11:08:00,
2013-03-07 05:10:00,35.7,31.6,30.18,ESE,103,0.0,0.0,85,0.00,,,0.00,WeatherCatV1.24B11,2013-03-07 11:10:00,
2013-03-07 05:13:00,36.3,31.9,30.16,ESE,103,0.0,0.0,84,0.00,,,0.00,WeatherCatV1.14B232,2013-03-07 11:13:00,
2013-03-07 05:15:00,35.8,31.8,30.18,ESE,103,0.0,0.0,85,0.00,,,0.00,WeatherCatV1.24B11,2013-03-07 11:15:00,
2013-03-07 05:18:00,36.4,32.3,30.17,ESE,103,0.0,0.0,85,0.00,,,0.00,WeatherCatV1.14B232,2013-03-07 11:18:00,
2013-03-07 05:20:00,35.7,31.6,30.18,ESE,103,0.0,0.0,85,0.00,,,0.00,WeatherCatV1.24B11,2013-03-07 11:20:00,
2013-03-07 05:23:00,36.7,32.6,30.17,ESE,103,0.0,0.0,85,0.00,,,0.00,WeatherCatV1.14B232,2013-03-07 11:23:00,
2013-03-07 05:25:00,36.0,31.9,30.19,ESE,103,0.0,0.0,85,0.00,,,0.00,WeatherCatV1.24B11,2013-03-07 11:25:00,
2013-03-07 05:28:00,36.7,32.6,30.17,ESE,103,0.0,0.0,85,0.00,,,0.00,WeatherCatV1.14B232,2013-03-07 11:28:00,
2013-03-07 05:30:00,36.3,32.5,30.19,ESE,103,0.0,0.0,86,0.00,,,0.00,WeatherCatV1.24B11,2013-03-07 11:30:00,
2013-03-07 05:33:00,36.4,32.3,30.17,ESE,103,0.0,0.0,85,0.00,,,0.00,WeatherCatV1.14B232,2013-03-07 11:33:00,
2013-03-07 05:35:00,36.6,32.8,30.19,ESE,103,0.0,0.0,86,0.00,,,0.00,WeatherCatV1.24B11,2013-03-07 11:35:00,
2013-03-07 05:38:00,36.4,32.3,30.17,ESE,103,0.0,0.0,85,0.00,,,0.00,WeatherCatV1.14B232,2013-03-07 11:38:00,
2013-03-07 05:40:00,36.8,33.0,30.19,ESE,103,0.0,0.0,86,0.00,,,0.00,WeatherCatV1.24B11,2013-03-07 11:40:00,
2013-03-07 05:43:00,36.5,32.4,30.17,ESE,103,0.0,0.0,85,0.00,,,0.00,WeatherCatV1.14B232,2013-03-07 11:43:00,
2013-03-07 05:45:00,37.0,33.2,30.19,ESE,103,0.0,0.0,86,0.00,,,0.00,WeatherCatV1.24B11,2013-03-07 11:45:00,
2013-03-07 05:48:00,36.4,32.3,30.17,ESE,103,0.0,0.0,85,0.00,,,0.00,WeatherCatV1.14B232,2013-03-07 11:48:00,
2013-03-07 05:50:00,37.2,33.4,30.19,ESE,103,0.0,0.0,86,0.00,,,0.00,WeatherCatV1.24B11,2013-03-07 11:50:00,
2013-03-07 05:53:00,36.3,32.2,30.17,ESE,103,0.0,0.0,85,0.00,,,0.00,WeatherCatV1.14B232,2013-03-07 11:53:00,
2013-03-07 05:55:00,37.7,34.2,30.19,ESE,103,0.0,0.0,87,0.00,,,0.00,WeatherCatV1.24B11,2013-03-07 11:55:00,
2013-03-07 05:58:00,36.1,32.0,30.17,ESE,103,0.0,0.0,85,0.00,,,0.00,WeatherCatV1.14B232,2013-03-07 11:58:00,
2013-03-07 06:00:00,38.3,35.1,30.20,ESE,103,0.0,0.0,88,0.00,,,0.00,WeatherCatV1.24B11,2013-03-07 12:00:00,
2013-03-07 06:03:00,36.0,31.9,30.17,ESE,103,0.0,0.0,85,0.00,,,0.00,WeatherCatV1.14B232,2013-03-07 12:03:00,
2013-03-07 06:05:00,38.9,35.7,30.20,ESE,103,0.0,0.0,88,0.00,,,0.00,WeatherCatV1.24B11,2013-03-07 12:05:00,
2013-03-07 06:08:00,35.8,31.7,30.18,ESE,103,0.0,0.0,85,0.00,,,0.00,WeatherCatV1.14B232,2013-03-07 12:08:00,
2013-03-07 06:10:00,39.2,35.9,30.20,ESE,103,0.0,0.0,88,0.00,,,0.00,WeatherCatV1.24B11,2013-03-07 12:10:00,
2013-03-07 06:13:00,35.7,31.6,30.17,ESE,103,0.0,0.0,85,0.00,,,0.00,WeatherCatV1.14B232,2013-03-07 12:13:00,
2013-03-07 06:15:00,39.6,36.3,30.20,ESE,103,0.0,0.0,88,0.00,,,0.00,WeatherCatV1.24B11,2013-03-07 12:15:00,
2013-03-07 06:18:00,35.7,31.6,30.18,ESE,103,0.0,0.0,85,0.00,,,0.00,WeatherCatV1.14B232,2013-03-07 12:18:00,
2013-03-07 06:20:00,40.6,37.3,30.21,ESE,103,0.0,0.0,88,0.00,,,0.00,WeatherCatV1.24B11,2013-03-07 12:20:00,
2013-03-07 06:23:00,35.7,31.6,30.17,ESE,103,0.0,0.0,85,0.00,,,0.00,WeatherCatV1.14B232,2013-03-07 12:23:00,
2013-03-07 06:25:00,41.0,37.7,30.21,ESE,103,0.0,0.0,88,0.00,,,0.00,WeatherCatV1.24B11,2013-03-07 12:25:00,
2013-03-07 06:28:00,35.7,31.6,30.18,ESE,103,0.0,0.0,85,0.00,,,0.00,WeatherCatV1.14B232,2013-03-07 12:28:00,
2013-03-07 06:30:00,41.3,38.0,30.22,ESE,103,0.0,0.0,88,0.00,,,0.00,WeatherCatV1.24B11,2013-03-07 12:30:00,
2013-03-07 06:33:00,35.8,31.7,30.18,ESE,103,0.0,0.0,85,0.00,,,0.00,WeatherCatV1.14B232,2013-03-07 12:33:00,
2013-03-07 06:35:00,41.8,38.5,30.22,ESE,103,0.0,1.0,88,0.00,,,0.00,WeatherCatV1.24B11,2013-03-07 12:35:00,
2013-03-07 06:38:00,35.9,31.8,30.18,ESE,103,0.0,0.0,85,0.00,,,0.00,WeatherCatV1.14B232,2013-03-07 12:38:00,
2013-03-07 06:40:00,42.6,39.3,30.22,ESE,103,0.0,0.0,88,0.00,,,0.00,WeatherCatV1.24B11,2013-03-07 12:40:00,
2013-03-07 06:43:00,36.2,32.4,30.19,ESE,103,0.0,0.0,86,0.00,,,0.00,WeatherCatV1.14B232,2013-03-07 12:43:00,
2013-03-07 06:45:00,43.4,40.1,30.22,ESE,103,0.0,0.0,88,0.00,,,0.00,WeatherCatV1.24B11,2013-03-07 12:45:00,
2013-03-07 06:48:00,36.5,32.7,30.19,ESE,103,0.0,0.0,86,0.00,,,0.00,WeatherCatV1.14B232,2013-03-07 12:48:00,
2013-03-07 06:50:00,44.2,40.9,30.22,ESE,103,0.0,0.0,88,0.00,,,0.00,WeatherCatV1.24B11,2013-03-07 12:50:00,
2013-03-07 06:53:00,36.8,33.0,30.19,ESE,103,0.0,0.0,86,0.00,,,0.00,WeatherCatV1.14B232,2013-03-07 12:53:00,
2013-03-07 06:55:00,45.0,41.4,30.23,ESE,103,0.0,1.0,87,0.00,,,0.00,WeatherCatV1.24B11,2013-03-07 12:55:00,
2013-03-07 06:58:00,37.0,33.2,30.19,ESE,103,0.0,0.0,86,0.00,,,0.00,WeatherCatV1.14B232,2013-03-07 12:58:00,
2013-03-07 07:00:00,45.8,42.2,30.23,ESE,103,0.0,0.0,87,0.00,,,0.00,WeatherCatV1.24B11,2013-03-07 13:00:00,
2013-03-07 07:03:00,37.1,33.3,30.19,ESE,103,0.0,0.0,86,0.00,,,0.00,WeatherCatV1.14B232,2013-03-07 13:03:00,
2013-03-07 07:05:00,46.4,42.4,30.23,ESE,103,0.0,1.0,86,0.00,,,0.00,WeatherCatV1.24B11,2013-03-07 13:05:00,
2013-03-07 07:08:00,37.5,34.0,30.19,ESE,103,0.0,0.0,87,0.00,,,0.00,WeatherCatV1.14B232,2013-03-07 13:08:00,
2013-03-07 07:10:00,46.8,42.8,30.23,ESE,103,0.0,0.0,86,0.00,,,0.00,WeatherCatV1.24B11,2013-03-07 13:10:00,
2013-03-07 07:13:00,38.3,35.1,30.20,ESE,103,0.0,0.0,88,0.00,,,0.00,WeatherCatV1.14B232,2013-03-07 13:13:00,
2013-03-07 07:15:00,47.4,43.1,30.23,ESE,103,0.0,3.0,85,0.00,,,0.00,WeatherCatV1.24B11,2013-03-07 13:15:00,
2013-03-07 07:18:00,38.8,35.6,30.20,ESE,103,0.0,0.0,88,0.00,,,0.00,WeatherCatV1.14B232,2013-03-07 13:18:00,
2013-03-07 07:20:00,48.1,43.5,30.23,ESE,103,0.0,0.0,84,0.00,,,0.00,WeatherCatV1.24B11,2013-03-07 13:20:00,
2013-03-07 07:23:00,39.2,36.0,30.20,ESE,103,0.0,0.0,88,0.00,,,0.00,WeatherCatV1.14B232,2013-03-07 13:23:00,
2013-03-07 07:25:00,48.8,44.2,30.23,ESE,103,0.0,1.0,84,0.00,,,0.00,WeatherCatV1.24B11,2013-03-07 13:25:00,
2013-03-07 07:28:00,39.4,36.1,30.20,ESE,103,0.0,0.0,88,0.00,,,0.00,WeatherCatV1.14B232,2013-03-07 13:28:00,
2013-03-07 07:30:00,49.6,44.7,30.23,East,96,0.0,1.0,83,0.00,,,0.00,WeatherCatV1.24B11,2013-03-07 13:30:00,
2013-03-07 07:33:00,40.2,36.9,30.21,ESE,103,0.0,0.0,88,0.00,,,0.00,WeatherCatV1.14B232,2013-03-07 13:33:00,
2013-03-07 07:35:00,50.4,45.4,30.23,East,88,1.0,1.0,83,0.00,,,0.00,WeatherCatV1.24B11,2013-03-07 13:35:00,
2013-03-07 07:38:00,40.8,37.5,30.21,ESE,103,0.0,0.0,88,0.00,,,0.00,WeatherCatV1.14B232,2013-03-07 13:38:00,
2013-03-07 07:40:00,51.2,46.2,30.23,East,79,1.0,2.0,83,0.00,,,0.00,WeatherCatV1.24B11,2013-03-07 13:40:00,
2013-03-07 07:43:00,41.1,37.8,30.22,ESE,103,0.0,0.0,88,0.00,,,0.00,WeatherCatV1.14B232,2013-03-07 13:43:00,
2013-03-07 07:45:00,51.9,46.6,30.24,East,91,1.0,6.0,82,0.00,,,0.00,WeatherCatV1.24B11,2013-03-07 13:45:00,
2013-03-07 07:48:00,41.6,38.3,30.22,ESE,103,0.0,0.0,88,0.00,,,0.00,WeatherCatV1.14B232,2013-03-07 13:48:00,
2013-03-07 07:50:00,52.4,47.1,30.24,East,93,1.0,6.0,82,0.00,,,0.00,WeatherCatV1.24B11,2013-03-07 13:50:00,
2013-03-07 07:53:00,42.3,39.0,30.22,ESE,103,0.0,0.0,88,0.00,,,0.00,WeatherCatV1.14B232,2013-03-07 13:53:00,
2013-03-07 07:55:00,42.6,39.3,30.22,ESE,103,0.0,0.0,88,0.00,,,0.00,WeatherCatV1.14B232,2013-03-07 13:55:00,
2013-03-07 08:00:00,43.4,40.1,30.22,ESE,103,0.0,0.0,88,0.00,,,0.00,WeatherCatV1.14B232,2013-03-07 14:00:00,
2013-03-07 08:05:00,44.2,40.9,30.22,ESE,103,0.0,0.0,88,0.00,,,0.00,WeatherCatV1.14B232,2013-03-07 14:05:00,
2013-03-07 08:10:00,45.0,41.4,30.23,ESE,103,0.0,1.0,87,0.00,,,0.00,WeatherCatV1.14B232,2013-03-07 14:10:00,
2013-03-07 08:15:00,45.9,42.3,30.23,ESE,103,0.0,0.0,87,0.00,,,0.00,WeatherCatV1.14B232,2013-03-07 14:15:00,
2013-03-07 08:20:00,46.4,42.4,30.23,ESE,103,0.0,1.0,86,0.00,,,0.00,WeatherCatV1.14B232,2013-03-07 14:20:00,
2013-03-07 08:25:00,47.0,42.7,30.23,ESE,102,0.0,1.0,85,0.00,,,0.00,WeatherCatV1.14B232,2013-03-07 14:25:00,
2013-03-07 08:30:00,47.7,43.4,30.23,ESE,103,0.0,0.0,85,0.00,,,0.00,WeatherCatV1.14B232,2013-03-07 14:30:00,
2013-03-07 08:35:00,48.2,43.6,30.23,ESE,103,1.0,1.0,84,0.00,,,0.00,WeatherCatV1.14B232,2013-03-07 14:35:00,
2013-03-07 08:40:00,49.0,44.4,30.23,East,80,0.0,6.0,84,0.00,,,0.00,WeatherCatV1.14B232,2013-03-07 14:40:00,
2013-03-07 08:45:00,49.8,44.8,30.23,East,95,0.0,5.0,83,0.00,,,0.00,WeatherCatV1.14B232,2013-03-07 14:45:00,
2013-03-07 08:50:00,50.6,45.6,30.23,ENE,74,0.0,1.0,83,0.00,,,0.00,WeatherCatV1.14B232,2013-03-07 14:50:00,
2013-03-07 08:55:00,51.4,46.1,30.23,East,99,2.0,6.0,82,0.00,,,0.00,WeatherCatV1.14B232,2013-03-07 14:55:00,
2013-03-07 09:00:00,52.1,46.8,30.24,East,98,1.0,6.0,82,0.00,,,0.00,WeatherCatV1.14B232,2013-03-07 15:00:00,
2013-03-07 09:05:00,52.6,47.3,30.24,East,94,0.0,6.0,82,0.00,,,0.00,WeatherCatV1.14B232,2013-03-07 15:05:00,
2013-03-07 09:10:00,53.1,47.4,30.24,ESE,102,1.0,1.0,81,0.00,,,0.00,WeatherCatV1.14B232,2013-03-07 15:10:00,
2013-03-07 09:15:00,53.9,48.2,30.24,East,79,0.0,3.0,81,0.00,,,0.00,WeatherCatV1.14B232,2013-03-07 15:15:00,
2013-03-07 09:20:00,54.7,48.7,30.23,East,92,5.0,5.0,80,0.00,,,0.00,WeatherCatV1.14B232,2013-03-07 15:20:00,
2013-03-07 09:25:00,55.5,49.1,30.23,ESE,102,2.0,5.0,79,0.00,,,0.00,WeatherCatV1.14B232,2013-03-07 15:25:00,
2013-03-07 09:30:00,56.3,49.5,30.23,East,86,5.0,7.0,78,0.00,,,0.00,WeatherCatV1.14B232,2013-03-07 15:30:00,
2013-03-07 09:35:00,57.3,49.8,30.24,ESE,117,3.0,4.0,76,0.00,,,0.00,WeatherCatV1.14B232,2013-03-07 15:35:00,
2013-03-07 09:40:00,57.6,49.7,30.24,East,96,6.0,10.0,75,0.00,,,0.00,WeatherCatV1.14B232,2013-03-07 15:40:00,
2013-03-07 09:45:00,58.1,50.2,30.23,ENE,74,5.0,8.0,75,0.00,,,0.00,WeatherCatV1.14B232,2013-03-07 15:45:00,
2013-03-07 09:50:00,58.3,50.0,30.23,NE,56,1.0,9.0,74,0.00,,,0.00,WeatherCatV1.14B232,2013-03-07 15:50:00,
2013-03-07 09:55:00,58.6,50.0,30.23,ESE,106,9.0,11.0,73,0.00,,,0.00,WeatherCatV1.14B232,2013-03-07 15:55:00,
2013-03-07 10:00:00,58.2,50.0,30.23,East,82,3.0,7.0,74,0.00,,,0.00,WeatherCatV1.14B232,2013-03-07 16:00:00,
2013-03-07 10:05:00,58.4,50.1,30.23,East,99,2.0,6.0,74,0.00,,,0.00,WeatherCatV1.14B232,2013-03-07 16:05:00,
2013-03-07 10:10:00,59.0,50.7,30.23,East,99,2.0,7.0,74,0.00,,,0.00,WeatherCatV1.14B232,2013-03-07 16:10:00,
2013-03-07 10:15:00,59.0,50.4,30.23,ENE,71,2.0,7.0,73,0.00,,,0.00,WeatherCatV1.14B232,2013-03-07 16:15:00,
2013-03-07 10:20:00,65.5,52.1,30.21,ESE,105,5.0,10.0,62,0.00,,,0.00,WeatherCatV1.24B11,2013-03-07 16:20:00,
2013-03-07 10:21:00,59.7,50.7,30.23,ENE,74,1.0,10.0,72,0.00,,,0.00,WeatherCatV1.14B232,2013-03-07 16:21:00,
2013-03-07 10:25:00,66.1,52.7,30.21,ESE,113,4.0,8.0,62,0.00,,,0.00,WeatherCatV1.24B11,2013-03-07 16:25:00,
2013-03-07 10:26:00,59.9,50.8,30.23,East,97,6.0,7.0,72,0.00,,,0.00,WeatherCatV1.14B232,2013-03-07 16:26:00,
2013-03-07 10:30:00,66.3,52.9,30.20,SE,134,4.0,4.0,62,0.00,,,0.00,WeatherCatV1.24B11,2013-03-07 16:30:00,
2013-03-07 10:31:00,60.2,51.1,30.23,East,80,6.0,11.0,72,0.00,,,0.00,WeatherCatV1.14B232,2013-03-07 16:31:00,
2013-03-07 10:35:00,66.7,52.8,30.20,ESE,113,4.0,4.0,61,0.00,,,0.00,WeatherCatV1.24B11,2013-03-07 16:35:00,
2013-03-07 10:36:00,61.1,52.0,30.23,ESE,123,0.0,7.0,72,0.00,,,0.00,WeatherCatV1.14B232,2013-03-07 16:36:00,
2013-03-07 10:40:00,67.1,52.7,30.20,SE,125,3.0,4.0,60,0.00,,,0.00,WeatherCatV1.24B11,2013-03-07 16:40:00,
2013-03-07 10:41:00,61.9,51.6,30.23,SE,139,3.0,9.0,69,0.00,,,0.00,WeatherCatV1.14B232,2013-03-07 16:41:00,
2013-03-07 10:45:00,67.1,52.7,30.19,ESE,103,4.0,8.0,60,0.00,,,0.00,WeatherCatV1.24B11,2013-03-07 16:45:00,
2013-03-07 10:46:00,61.7,51.4,30.23,East,87,8.0,8.0,69,0.00,,,0.00,WeatherCatV1.14B232,2013-03-07 16:46:00,
2013-03-07 10:50:00,67.5,52.7,30.19,ESE,110,4.0,9.0,59,0.00,,,0.00,WeatherCatV1.24B11,2013-03-07 16:50:00,
2013-03-07 10:51:00,62.2,52.3,30.22,SE,125,3.0,7.0,70,0.00,,,0.00,WeatherCatV1.14B232,2013-03-07 16:51:00,
2013-03-07 10:55:00,68.1,52.8,30.19,ESE,123,3.0,11.0,58,0.00,,,0.00,WeatherCatV1.24B11,2013-03-07 16:55:00,
2013-03-07 10:56:00,63.0,52.3,30.22,ESE,114,0.0,9.0,68,0.00,,,0.00,WeatherCatV1.14B232,2013-03-07 16:56:00,
2013-03-07 11:00:00,67.4,52.1,30.19,ESE,113,4.0,8.0,58,0.00,,,0.00,WeatherCatV1.24B11,2013-03-07 17:00:00,
2013-03-07 11:01:00,63.4,52.2,30.22,SSE,156,2.0,10.0,67,0.00,,,0.00,WeatherCatV1.14B232,2013-03-07 17:01:00,
2013-03-07 11:05:00,67.6,52.3,30.19,ESE,116,4.0,11.0,58,0.00,,,0.00,WeatherCatV1.24B11,2013-03-07 17:05:00,
2013-03-07 11:06:00,63.4,51.8,30.22,ESE,104,4.0,7.0,66,0.00,,,0.00,WeatherCatV1.14B232,2013-03-07 17:06:00,
2013-03-07 11:10:00,68.4,52.6,30.18,ESE,117,3.0,8.0,57,0.00,,,0.00,WeatherCatV1.24B11,2013-03-07 17:10:00,
2013-03-07 11:11:00,64.0,52.4,30.22,SSE,164,5.0,9.0,66,0.00,,,0.00,WeatherCatV1.14B232,2013-03-07 17:11:00,
2013-03-07 11:15:00,69.0,52.7,30.18,ESE,112,4.0,5.0,56,0.00,,,0.00,WeatherCatV1.24B11,2013-03-07 17:15:00,
2013-03-07 11:16:00,64.5,52.5,30.22,East,86,2.0,11.0,65,0.00,,,0.00,WeatherCatV1.14B232,2013-03-07 17:16:00,
2013-03-07 11:20:00,69.6,52.7,30.17,ESE,105,4.0,4.0,55,0.00,,,0.00,WeatherCatV1.24B11,2013-03-07 17:20:00,
2013-03-07 11:21:00,64.8,52.3,30.22,ESE,122,4.0,9.0,64,0.00,,,0.00,WeatherCatV1.14B232,2013-03-07 17:21:00,
2013-03-07 11:25:00,69.8,51.4,30.17,ESE,121,4.0,10.0,52,0.00,,,0.00,WeatherCatV1.24B11,2013-03-07 17:25:00,
2013-03-07 11:26:00,65.8,53.3,30.22,ESE,119,4.0,10.0,64,0.00,,,0.00,WeatherCatV1.14B232,2013-03-07 17:26:00,
2013-03-07 11:30:00,69.8,50.3,30.17,ESE,117,5.0,6.0,50,0.00,,,0.00,WeatherCatV1.24B11,2013-03-07 17:30:00,
2013-03-07 11:31:00,65.8,52.4,30.21,SSE,159,2.0,10.0,62,0.00,,,0.00,WeatherCatV1.14B232,2013-03-07 17:31:00,
2013-03-07 11:35:00,69.7,52.3,30.17,ESE,118,5.0,9.0,54,0.00,,,0.00,WeatherCatV1.24B11,2013-03-07 17:35:00,
2013-03-07 11:36:00,65.6,52.2,30.21,East,88,3.0,10.0,62,0.00,,,0.00,WeatherCatV1.14B232,2013-03-07 17:36:00,
2013-03-07 11:40:00,69.5,52.1,30.17,SE,125,4.0,7.0,54,0.00,,,0.00,WeatherCatV1.24B11,2013-03-07 17:40:00,
2013-03-07 11:41:00,66.3,52.4,30.21,SE,146,2.0,8.0,61,0.00,,,0.00,WeatherCatV1.14B232,2013-03-07 17:41:00,
2013-03-07 11:45:00,69.7,52.3,30.16,ESE,116,4.0,8.0,54,0.00,,,0.00,WeatherCatV1.24B11,2013-03-07 17:45:00,
2013-03-07 11:46:00,66.4,52.5,30.20,ESE,113,3.0,10.0,61,0.00,,,0.00,WeatherCatV1.14B232,2013-03-07 17:46:00,
2013-03-07 11:50:00,70.2,52.2,30.16,ESE,113,4.0,8.0,53,0.00,,,0.00,WeatherCatV1.24B11,2013-03-07 17:50:00,
2013-03-07 11:51:00,67.0,53.1,30.20,SE,130,6.0,6.0,61,0.00,,,0.00,WeatherCatV1.14B232,2013-03-07 17:51:00,
2013-03-07 11:55:00,70.6,52.6,30.16,ESE,116,4.0,4.0,53,0.00,,,0.00,WeatherCatV1.24B11,2013-03-07 17:55:00,
2013-03-07 11:56:00,67.1,52.7,30.20,ESE,109,4.0,11.0,60,0.00,,,0.00,WeatherCatV1.14B232,2013-03-07 17:56:00,
2013-03-07 12:00:00,71.1,52.6,30.15,ESE,122,3.0,4.0,52,0.00,,,0.00,WeatherCatV1.24B11,2013-03-07 18:00:00,
2013-03-07 12:01:00,67.2,52.8,30.19,SSE,157,3.0,6.0,60,0.00,,,0.00,WeatherCatV1.14B232,2013-03-07 18:01:00,
2013-03-07 12:05:00,71.3,52.2,30.15,SE,126,2.0,8.0,51,0.00,,,0.00,WeatherCatV1.24B11,2013-03-07 18:05:00,
2013-03-07 12:06:00,67.6,52.3,30.19,SE,138,0.0,9.0,58,0.00,,,0.00,WeatherCatV1.14B232,2013-03-07 18:06:00,
2013-03-07 12:10:00,71.6,52.5,30.15,ESE,116,4.0,9.0,51,0.00,,,0.00,WeatherCatV1.24B11,2013-03-07 18:10:00,
2013-03-07 12:11:00,68.0,52.2,30.19,East,99,6.0,11.0,57,0.00,,,0.00,WeatherCatV1.14B232,2013-03-07 18:11:00,
2013-03-07 12:12:00,67.7,51.9,30.20,East,99,8.0,9.0,57,0.00,,,0.00,WeatherCatV1.14B232,2013-03-07 18:12:00,
2013-03-07 12:15:00,71.5,52.4,30.15,ESE,109,4.0,7.0,51,0.00,,,0.00,WeatherCatV1.24B11,2013-03-07 18:15:00,
2013-03-07 12:17:00,67.4,52.1,30.19,ESE,114,5.0,5.0,58,0.00,,,0.00,WeatherCatV1.14B232,2013-03-07 18:17:00,
2013-03-07 12:20:00,71.4,52.3,30.15,SE,128,4.0,13.0,51,0.00,,,0.00,WeatherCatV1.24B11,2013-03-07 18:20:00,
2013-03-07 12:22:00,67.9,52.6,30.19,SE,125,1.0,2.0,58,0.00,,,0.00,WeatherCatV1.14B232,2013-03-07 18:22:00,
2013-03-07 12:25:00,71.4,52.3,30.14,SE,127,5.0,8.0,51,0.00,,,0.00,WeatherCatV1.24B11,2013-03-07 18:25:00,
2013-03-07 12:27:00,68.8,52.5,30.18,ESE,114,8.0,11.0,56,0.00,,,0.00,WeatherCatV1.14B232,2013-03-07 18:27:00,
2013-03-07 12:30:00,71.7,52.6,30.14,ESE,123,5.0,9.0,51,0.00,,,0.00,WeatherCatV1.24B11,2013-03-07 18:30:00,
2013-03-07 12:32:00,69.3,52.4,30.18,East,90,3.0,10.0,55,0.00,,,0.00,WeatherCatV1.14B232,2013-03-07 18:32:00,
2013-03-07 12:35:00,71.6,52.0,30.14,ESE,116,4.0,8.0,50,0.00,,,0.00,WeatherCatV1.24B11,2013-03-07 18:35:00,
2013-03-07 12:37:00,69.7,51.3,30.17,SE,124,4.0,8.0,52,0.00,,,0.00,WeatherCatV1.14B232,2013-03-07 18:37:00,
2013-03-07 12:40:00,71.5,51.9,30.13,ESE,118,5.0,8.0,50,0.00,,,0.00,WeatherCatV1.24B11,2013-03-07 18:40:00,
2013-03-07 12:42:00,69.9,51.5,30.17,SE,141,3.0,8.0,52,0.00,,,0.00,WeatherCatV1.14B232,2013-03-07 18:42:00,
2013-03-07 12:45:00,71.8,52.7,30.14,SE,125,5.0,7.0,51,0.00,,,0.00,WeatherCatV1.24B11,2013-03-07 18:45:00,
2013-03-07 12:47:00,70.0,52.1,30.17,SE,145,3.0,9.0,53,0.00,,,0.00,WeatherCatV1.14B232,2013-03-07 18:47:00,
2013-03-07 12:50:00,71.8,52.7,30.13,SE,128,4.0,9.0,51,0.00,,,0.00,WeatherCatV1.24B11,2013-03-07 18:50:00,
2013-03-07 12:52:00,69.5,52.1,30.17,SE,136,4.0,7.0,54,0.00,,,0.00,WeatherCatV1.14B232,2013-03-07 18:52:00,
2013-03-07 12:55:00,71.8,53.2,30.12,ESE,123,4.0,4.0,52,0.00,,,0.00,WeatherCatV1.24B11,2013-03-07 18:55:00,
2013-03-07 12:57:00,69.7,52.8,30.16,ESE,110,4.0,13.0,55,0.00,,,0.00,WeatherCatV1.14B232,2013-03-07 18:57:00,
2013-03-07 13:00:00,72.4,53.2,30.12,ESE,118,4.0,7.0,51,0.00,,,0.00,WeatherCatV1.24B11,2013-03-07 19:00:00,
2013-03-07 13:02:00,69.7,52.3,30.16,SE,134,1.0,5.0,54,0.00,,,0.00,WeatherCatV1.14B232,2013-03-07 19:02:00,
2013-03-07 13:05:00,72.6,52.9,30.12,SE,125,3.0,10.0,50,0.00,,,0.00,WeatherCatV1.24B11,2013-03-07 19:05:00,
2013-03-07 13:07:00,70.4,51.4,30.16,SE,128,5.0,11.0,51,0.00,,,0.00,WeatherCatV1.14B232,2013-03-07 19:07:00,
2013-03-07 13:10:00,72.7,53.5,30.12,ESE,110,4.0,11.0,51,0.00,,,0.00,WeatherCatV1.24B11,2013-03-07 19:10:00,
2013-03-07 13:12:00,71.0,52.5,30.16,ESE,114,2.0,5.0,52,0.00,,,0.00,WeatherCatV1.14B232,2013-03-07 19:12:00,
2013-03-07 13:15:00,72.7,54.0,30.12,ESE,118,4.0,4.0,52,0.00,,,0.00,WeatherCatV1.24B11,2013-03-07 19:15:00,
2013-03-07 13:17:00,71.3,52.2,30.15,ESE,117,7.0,7.0,51,0.00,,,0.00,WeatherCatV1.14B232,2013-03-07 19:17:00,
2013-03-07 13:20:00,73.1,53.9,30.11,ESE,122,3.0,8.0,51,0.00,,,0.00,WeatherCatV1.24B11,2013-03-07 19:20:00,
2013-03-07 13:22:00,71.4,51.8,30.15,SSE,168,5.0,8.0,50,0.00,,,0.00,WeatherCatV1.14B232,2013-03-07 19:22:00,
2013-03-07 13:25:00,73.5,54.2,30.11,ESE,120,4.0,7.0,51,0.00,,,0.00,WeatherCatV1.24B11,2013-03-07 19:25:00,
2013-03-07 13:27:00,71.6,52.5,30.15,ESE,118,3.0,7.0,51,0.00,,,0.00,WeatherCatV1.14B232,2013-03-07 19:27:00,
2013-03-07 13:30:00,72.7,53.5,30.11,ESE,110,5.0,10.0,51,0.00,,,0.00,WeatherCatV1.24B11,2013-03-07 19:30:00,
2013-03-07 13:32:00,71.3,51.7,30.15,SSE,157,3.0,5.0,50,0.00,,,0.00,WeatherCatV1.14B232,2013-03-07 19:32:00,
2013-03-07 13:35:00,72.8,53.6,30.11,ESE,120,6.0,13.0,51,0.00,,,0.00,WeatherCatV1.24B11,2013-03-07 19:35:00,
2013-03-07 13:37:00,71.3,52.2,30.15,East,80,6.0,9.0,51,0.00,,,0.00,WeatherCatV1.14B232,2013-03-07 19:37:00,
2013-03-07 13:40:00,72.4,53.2,30.11,ESE,123,4.0,9.0,51,0.00,,,0.00,WeatherCatV1.24B11,2013-03-07 19:40:00,
2013-03-07 13:42:00,71.5,52.4,30.14,ESE,107,1.0,5.0,51,0.00,,,0.00,WeatherCatV1.14B232,2013-03-07 19:42:00,
2013-03-07 13:45:00,71.9,53.3,30.11,ESE,113,4.0,5.0,52,0.00,,,0.00,WeatherCatV1.24B11,2013-03-07 19:45:00,
2013-03-07 13:47:00,71.8,52.1,30.14,ESE,114,2.0,9.0,50,0.00,,,0.00,WeatherCatV1.14B232,2013-03-07 19:47:00,
2013-03-07 13:50:00,71.7,53.6,30.11,ESE,112,4.0,9.0,53,0.00,,,0.00,WeatherCatV1.24B11,2013-03-07 19:50:00,
2013-03-07 13:52:00,71.5,51.9,30.14,SSE,151,4.0,10.0,50,0.00,,,0.00,WeatherCatV1.14B232,2013-03-07 19:52:00,
2013-03-07 13:55:00,71.4,53.9,30.11,ESE,102,4.0,9.0,54,0.00,,,0.00,WeatherCatV1.24B11,2013-03-07 19:55:00,
2013-03-07 13:57:00,71.6,52.5,30.14,SE,125,2.0,12.0,51,0.00,,,0.00,WeatherCatV1.14B232,2013-03-07 19:57:00,
2013-03-07 14:00:00,71.3,53.8,30.10,ESE,104,5.0,8.0,54,0.00,,,0.00,WeatherCatV1.24B11,2013-03-07 20:00:00,
2013-03-07 14:02:00,71.8,52.1,30.13,SSE,160,2.0,7.0,50,0.00,,,0.00,WeatherCatV1.14B232,2013-03-07 20:02:00,
2013-03-07 14:05:00,71.4,54.4,30.10,ESE,107,4.0,10.0,55,0.00,,,0.00,WeatherCatV1.24B11,2013-03-07 20:05:00,
2013-03-07 14:07:00,72.0,52.9,30.13,East,101,7.0,8.0,51,0.00,,,0.00,WeatherCatV1.14B232,2013-03-07 20:07:00,
2013-03-07 14:10:00,71.3,54.8,30.10,ESE,103,5.0,9.0,56,0.00,,,0.00,WeatherCatV1.24B11,2013-03-07 20:10:00,
2013-03-07 14:12:00,72.0,53.4,30.12,East,99,1.0,7.0,52,0.00,,,0.00,WeatherCatV1.14B232,2013-03-07 20:12:00,
2013-03-07 14:15:00,70.8,54.8,30.10,ESE,105,5.0,10.0,57,0.00,,,0.00,WeatherCatV1.24B11,2013-03-07 20:15:00,
2013-03-07 14:17:00,72.6,52.9,30.12,SE,131,0.0,7.0,50,0.00,,,0.00,WeatherCatV1.14B232,2013-03-07 20:17:00,
2013-03-07 14:20:00,70.8,54.8,30.10,East,98,6.0,12.0,57,0.00,,,0.00,WeatherCatV1.24B11,2013-03-07 20:20:00,
2013-03-07 14:22:00,72.7,53.5,30.12,ENE,74,0.0,7.0,51,0.00,,,0.00,WeatherCatV1.14B232,2013-03-07 20:22:00,
2013-03-07 14:25:00,70.4,54.9,30.10,ESE,106,5.0,9.0,58,0.00,,,0.00,WeatherCatV1.24B11,2013-03-07 20:25:00,
2013-03-07 14:27:00,72.6,54.0,30.12,ESE,119,4.0,8.0,52,0.00,,,0.00,WeatherCatV1.14B232,2013-03-07 20:27:00,
2013-03-07 14:30:00,70.1,55.1,30.10,ESE,110,4.0,11.0,59,0.00,,,0.00,WeatherCatV1.24B11,2013-03-07 20:30:00,
2013-03-07 14:32:00,73.0,53.8,30.12,SE,125,4.0,6.0,51,0.00,,,0.00,WeatherCatV1.14B232,2013-03-07 20:32:00,
2013-03-07 14:35:00,70.2,55.2,30.10,East,94,5.0,9.0,59,0.00,,,0.00,WeatherCatV1.24B11,2013-03-07 20:35:00,
2013-03-07 14:37:00,73.4,54.2,30.11,ESE,117,3.0,12.0,51,0.00,,,0.00,WeatherCatV1.14B232,2013-03-07 20:37:00,
2013-03-07 14:40:00,70.1,55.1,30.10,ESE,102,4.0,8.0,59,0.00,,,0.00,WeatherCatV1.24B11,2013-03-07 20:40:00,
2013-03-07 14:42:00,73.2,54.0,30.11,ESE,107,5.0,13.0,51,0.00,,,0.00,WeatherCatV1.14B232,2013-03-07 20:42:00,
2013-03-07 14:45:00,70.3,55.3,30.10,ESE,103,4.0,8.0,59,0.00,,,0.00,WeatherCatV1.24B11,2013-03-07 20:45:00,
2013-03-07 14:47:00,72.8,53.6,30.11,ESE,114,9.0,11.0,51,0.00,,,0.00,WeatherCatV1.14B232,2013-03-07 20:47:00,
2013-03-07 14:50:00,70.0,55.0,30.10,ESE,111,4.0,10.0,59,0.00,,,0.00,WeatherCatV1.24B11,2013-03-07 20:50:00,
2013-03-07 14:52:00,72.9,53.2,30.11,SE,125,4.0,8.0,50,0.00,,,0.00,WeatherCatV1.14B232,2013-03-07 20:52:00,
2013-03-07 14:55:00,69.6,55.1,30.10,ESE,112,4.0,4.0,60,0.00,,,0.00,WeatherCatV1.24B11,2013-03-07 20:55:00,
2013-03-07 14:57:00,72.0,53.4,30.11,East,88,3.0,9.0,52,0.00,,,0.00,WeatherCatV1.14B232,2013-03-07 20:57:00,
2013-03-07 15:00:00,69.8,55.3,30.10,ESE,103,4.0,7.0,60,0.00,,,0.00,WeatherCatV1.24B11,2013-03-07 21:00:00,
2013-03-07 15:02:00,71.8,53.2,30.11,SE,124,9.0,9.0,52,0.00,,,0.00,WeatherCatV1.14B232,2013-03-07 21:02:00,
2013-03-07 15:05:00,69.7,55.2,30.10,ESE,108,4.0,11.0,60,0.00,,,0.00,WeatherCatV1.24B11,2013-03-07 21:05:00,
2013-03-07 15:07:00,71.5,53.5,30.10,East,90,7.0,10.0,53,0.00,,,0.00,WeatherCatV1.14B232,2013-03-07 21:07:00,
2013-03-07 15:10:00,69.4,55.4,30.09,ESE,110,4.0,9.0,61,0.00,,,0.00,WeatherCatV1.24B11,2013-03-07 21:10:00,
2013-03-07 15:12:00,71.3,53.8,30.10,ESE,115,7.0,8.0,54,0.00,,,0.00,WeatherCatV1.14B232,2013-03-07 21:12:00,
2013-03-07 15:15:00,69.0,55.0,30.09,ESE,108,6.0,9.0,61,0.00,,,0.00,WeatherCatV1.24B11,2013-03-07 21:15:00,
2013-03-07 15:17:00,71.3,54.3,30.10,ESE,111,4.0,9.0,55,0.00,,,0.00,WeatherCatV1.14B232,2013-03-07 21:17:00,
2013-03-07 15:20:00,68.9,55.3,30.09,ESE,105,5.0,9.0,62,0.00,,,0.00,WeatherCatV1.24B11,2013-03-07 21:20:00,
2013-03-07 15:22:00,71.3,54.3,30.10,East,98,7.0,12.0,55,0.00,,,0.00,WeatherCatV1.14B232,2013-03-07 21:22:00,
2013-03-07 15:25:00,68.7,55.2,30.09,East,98,5.0,15.0,62,0.00,,,0.00,WeatherCatV1.24B11,2013-03-07 21:25:00,
2013-03-07 15:27:00,71.1,54.6,30.10,ESE,117,8.0,11.0,56,0.00,,,0.00,WeatherCatV1.14B232,2013-03-07 21:27:00,
2013-03-07 15:30:00,68.6,55.1,30.09,East,85,5.0,7.0,62,0.00,,,0.00,WeatherCatV1.24B11,2013-03-07 21:30:00,
2013-03-07 15:32:00,70.9,54.9,30.10,ESE,121,7.0,10.0,57,0.00,,,0.00,WeatherCatV1.14B232,2013-03-07 21:32:00,
2013-03-07 15:35:00,68.5,55.4,30.09,East,91,6.0,10.0,63,0.00,,,0.00,WeatherCatV1.24B11,2013-03-07 21:35:00,
2013-03-07 15:37:00,70.5,55.0,30.10,East,84,3.0,12.0,58,0.00,,,0.00,WeatherCatV1.14B232,2013-03-07 21:37:00,
2013-03-07 15:40:00,68.5,55.4,30.09,East,81,5.0,5.0,63,0.00,,,0.00,WeatherCatV1.24B11,2013-03-07 21:40:00,
2013-03-07 15:42:00,70.2,55.2,30.10,East,90,7.0,7.0,59,0.00,,,0.00,WeatherCatV1.14B232,2013-03-07 21:42:00,
2013-03-07 15:45:00,68.5,55.4,30.09,ESE,108,3.0,7.0,63,0.00,,,0.00,WeatherCatV1.24B11,2013-03-07 21:45:00,
2013-03-07 15:47:00,70.1,55.1,30.10,East,94,2.0,7.0,59,0.00,,,0.00,WeatherCatV1.14B232,2013-03-07 21:47:00,
2013-03-07 15:50:00,68.6,55.5,30.09,ESE,108,3.0,7.0,63,0.00,,,0.00,WeatherCatV1.24B11,2013-03-07 21:50:00,
2013-03-07 15:52:00,70.1,55.1,30.10,SE,124,6.0,9.0,59,0.00,,,0.00,WeatherCatV1.14B232,2013-03-07 21:52:00,
2013-03-07 15:55:00,68.6,55.5,30.10,ESE,106,4.0,8.0,63,0.00,,,0.00,WeatherCatV1.24B11,2013-03-07 21:55:00,
2013-03-07 15:57:00,70.2,55.2,30.10,ESE,113,3.0,11.0,59,0.00,,,0.00,WeatherCatV1.14B232,2013-03-07 21:57:00,
2013-03-07 16:00:00,68.5,55.4,30.10,ESE,113,5.0,10.0,63,0.00,,,0.00,WeatherCatV1.24B11,2013-03-07 22:00:00,
2013-03-07 16:02:00,70.2,55.2,30.10,ESE,105,3.0,13.0,59,0.00,,,0.00,WeatherCatV1.14B232,2013-03-07 22:02:00,
2013-03-07 16:05:00,68.3,55.2,30.10,ESE,110,6.0,10.0,63,0.00,,,0.00,WeatherCatV1.24B11,2013-03-07 22:05:00,
2013-03-07 16:07:00,69.7,55.2,30.10,ESE,106,2.0,9.0,60,0.00,,,0.00,WeatherCatV1.14B232,2013-03-07 22:07:00,
2013-03-07 16:10:00,68.2,55.1,30.10,ESE,107,6.0,11.0,63,0.00,,,0.00,WeatherCatV1.24B11,2013-03-07 22:10:00,
2013-03-07 16:12:00,69.7,55.2,30.10,East,94,6.0,13.0,60,0.00,,,0.00,WeatherCatV1.14B232,2013-03-07 22:12:00,
2013-03-07 16:15:00,68.1,55.5,30.11,ESE,116,5.0,5.0,64,0.00,,,0.00,WeatherCatV1.24B11,2013-03-07 22:15:00,
2013-03-07 16:17:00,69.7,55.2,30.10,ESE,102,4.0,8.0,60,0.00,,,0.00,WeatherCatV1.14B232,2013-03-07 22:17:00,
2013-03-07 16:20:00,67.9,55.3,30.11,ESE,108,4.0,10.0,64,0.00,,,0.00,WeatherCatV1.24B11,2013-03-07 22:20:00,
2013-03-07 16:22:00,69.6,55.1,30.10,ESE,109,7.0,7.0,60,0.00,,,0.00,WeatherCatV1.14B232,2013-03-07 22:22:00,
2013-03-07 16:25:00,67.5,55.3,30.11,ESE,104,5.0,9.0,65,0.00,,,0.00,WeatherCatV1.24B11,2013-03-07 22:25:00,
2013-03-07 16:27:00,69.2,55.2,30.10,SE,130,3.0,10.0,61,0.00,,,0.00,WeatherCatV1.14B232,2013-03-07 22:27:00,
2013-03-07 16:30:00,67.2,55.0,30.11,ESE,107,5.0,5.0,65,0.00,,,0.00,WeatherCatV1.24B11,2013-03-07 22:30:00,
2013-03-07 16:32:00,68.9,55.3,30.09,SE,134,6.0,10.0,62,0.00,,,0.00,WeatherCatV1.14B232,2013-03-07 22:32:00,
2013-03-07 16:35:00,67.0,55.3,30.11,ESE,109,5.0,8.0,66,0.00,,,0.00,WeatherCatV1.24B11,2013-03-07 22:35:00,
2013-03-07 16:37:00,68.8,55.2,30.09,East,95,6.0,10.0,62,0.00,,,0.00,WeatherCatV1.14B232,2013-03-07 22:37:00,
2013-03-07 16:40:00,66.8,55.1,30.11,ESE,102,5.0,5.0,66,0.00,,,0.00,WeatherCatV1.24B11,2013-03-07 22:40:00,
2013-03-07 16:42:00,68.6,55.0,30.09,NE,56,4.0,15.0,62,0.00,,,0.00,WeatherCatV1.14B232,2013-03-07 22:42:00,
2013-03-07 16:45:00,66.6,54.9,30.11,East,98,4.0,4.0,66,0.00,,,0.00,WeatherCatV1.24B11,2013-03-07 22:45:00,
2013-03-07 16:47:00,68.5,55.4,30.09,ESE,118,3.0,10.0,63,0.00,,,0.00,WeatherCatV1.14B232,2013-03-07 22:47:00,
2013-03-07 16:50:00,66.4,55.1,30.12,East,100,3.0,7.0,67,0.00,,,0.00,WeatherCatV1.24B11,2013-03-07 22:50:00,
2013-03-07 16:52:00,68.5,55.4,30.09,ENE,63,1.0,13.0,63,0.00,,,0.00,WeatherCatV1.14B232,2013-03-07 22:52:00,
2013-03-07 16:55:00,66.3,55.0,30.12,ESE,106,3.0,7.0,67,0.00,,,0.00,WeatherCatV1.24B11,2013-03-07 22:55:00,
2013-03-07 16:57:00,68.4,55.3,30.09,ESE,123,1.0,7.0,63,0.00,,,0.00,WeatherCatV1.14B232,2013-03-07 22:57:00,
2013-03-07 17:00:00,66.0,55.1,30.12,ESE,111,4.0,9.0,68,0.00,,,0.00,WeatherCatV1.24B11,2013-03-07 23:00:00,
2013-03-07 17:02:00,68.6,55.5,30.09,ESE,111,4.0,9.0,63,0.00,,,0.00,WeatherCatV1.14B232,2013-03-07 23:02:00,
2013-03-07 17:05:00,65.9,55.0,30.11,East,100,5.0,7.0,68,0.00,,,0.00,WeatherCatV1.24B11,2013-03-07 23:05:00,
2013-03-07 17:07:00,68.6,55.5,30.09,ESE,122,7.0,8.0,63,0.00,,,0.00,WeatherCatV1.14B232,2013-03-07 23:07:00,
2013-03-07 17:10:00,65.7,55.2,30.11,ESE,105,5.0,8.0,69,0.00,,,0.00,WeatherCatV1.24B11,2013-03-07 23:10:00,
2013-03-07 17:12:00,68.5,55.4,30.10,ESE,115,3.0,13.0,63,0.00,,,0.00,WeatherCatV1.14B232,2013-03-07 23:12:00,
2013-03-07 17:15:00,65.6,55.2,30.11,ESE,106,5.0,8.0,69,0.00,,,0.00,WeatherCatV1.24B11,2013-03-07 23:15:00,
2013-03-07 17:17:00,68.4,55.3,30.10,SSE,165,12.0,12.0,63,0.00,,,0.00,WeatherCatV1.14B232,2013-03-07 23:17:00,
2013-03-07 17:20:00,65.4,55.0,30.11,ESE,102,4.0,5.0,69,0.00,,,0.00,WeatherCatV1.24B11,2013-03-07 23:20:00,
2013-03-07 17:22:00,68.3,55.2,30.10,East,91,6.0,9.0,63,0.00,,,0.00,WeatherCatV1.14B232,2013-03-07 23:22:00,
2013-03-07 17:25:00,65.3,55.3,30.12,ESE,114,4.0,4.0,70,0.00,,,0.00,WeatherCatV1.24B11,2013-03-07 23:25:00,
2013-03-07 17:27:00,68.1,55.5,30.10,ESE,121,5.0,10.0,64,0.00,,,0.00,WeatherCatV1.14B232,2013-03-07 23:27:00,
2013-03-07 17:30:00,65.2,55.2,30.12,ESE,112,4.0,9.0,70,0.00,,,0.00,WeatherCatV1.24B11,2013-03-07 23:30:00,
2013-03-07 17:32:00,68.0,55.4,30.11,East,90,3.0,6.0,64,0.00,,,0.00,WeatherCatV1.14B232,2013-03-07 23:32:00,
2013-03-07 17:35:00,65.1,55.1,30.13,ESE,116,5.0,8.0,70,0.00,,,0.00,WeatherCatV1.24B11,2013-03-07 23:35:00,
2013-03-07 17:37:00,67.8,55.2,30.11,ENE,69,4.0,12.0,64,0.00,,,0.00,WeatherCatV1.14B232,2013-03-07 23:37:00,
2013-03-07 17:40:00,65.0,55.0,30.12,ESE,108,5.0,5.0,70,0.00,,,0.00,WeatherCatV1.24B11,2013-03-07 23:40:00,
2013-03-07 17:42:00,67.4,55.2,30.11,ESE,123,5.0,8.0,65,0.00,,,0.00,WeatherCatV1.14B232,2013-03-07 23:42:00,
2013-03-07 17:45:00,64.9,54.9,30.12,ESE,109,5.0,14.0,70,0.00,,,0.00,WeatherCatV1.24B11,2013-03-07 23:45:00,
2013-03-07 17:47:00,67.1,55.4,30.11,East,94,2.0,14.0,66,0.00,,,0.00,WeatherCatV1.14B232,2013-03-07 23:47:00,
2013-03-07 17:50:00,64.7,55.1,30.12,ESE,105,5.0,9.0,71,0.00,,,0.00,WeatherCatV1.24B11,2013-03-07 23:50:00,
2013-03-07 17:52:00,66.9,55.2,30.11,ESE,107,1.0,9.0,66,0.00,,,0.00,WeatherCatV1.14B232,2013-03-07 23:52:00,
2013-03-07 17:55:00,64.6,55.0,30.12,ESE,102,4.0,7.0,71,0.00,,,0.00,WeatherCatV1.24B11,2013-03-07 23:55:00,
2013-03-07 17:57:00,66.7,55.0,30.12,ESE,103,2.0,8.0,66,0.00,,,0.00,WeatherCatV1.14B232,2013-03-07 23:57:00,
2013-03-07 18:00:00,64.3,54.7,30.12,ESE,103,4.0,8.0,71,0.00,,,0.00,WeatherCatV1.24B11,2013-03-08 00:00:00,
2013-03-07 18:02:00,66.5,55.2,30.12,East,101,7.0,8.0,67,0.00,,,0.00,WeatherCatV1.14B232,2013-03-08 00:02:00,
2013-03-07 18:05:00,64.2,55.0,30.12,ESE,106,4.0,8.0,72,0.00,,,0.00,WeatherCatV1.24B11,2013-03-08 00:05:00,
2013-03-07 18:07:00,66.3,55.0,30.12,SE,127,3.0,8.0,67,0.00,,,0.00,WeatherCatV1.14B232,2013-03-08 00:07:00,
2013-03-07 18:10:00,64.0,54.8,30.12,ESE,109,5.0,14.0,72,0.00,,,0.00,WeatherCatV1.24B11,2013-03-08 00:10:00,
2013-03-07 18:12:00,66.2,55.3,30.12,ESE,115,7.0,16.0,68,0.00,,,0.00,WeatherCatV1.14B232,2013-03-08 00:12:00,
2013-03-07 18:15:00,63.8,54.6,30.12,ESE,110,6.0,13.0,72,0.00,,,0.00,WeatherCatV1.24B11,2013-03-08 00:15:00,
2013-03-07 18:17:00,65.9,55.0,30.12,ENE,74,4.0,10.0,68,0.00,,,0.00,WeatherCatV1.14B232,2013-03-08 00:17:00,
2013-03-07 18:20:00,63.6,54.4,30.13,East,101,6.0,9.0,72,0.00,,,0.00,WeatherCatV1.24B11,2013-03-08 00:20:00,
2013-03-07 18:22:00,65.7,54.8,30.11,ESE,117,5.0,13.0,68,0.00,,,0.00,WeatherCatV1.14B232,2013-03-08 00:22:00,
2013-03-07 18:25:00,63.4,54.6,30.12,East,100,5.0,5.0,73,0.00,,,0.00,WeatherCatV1.24B11,2013-03-08 00:25:00,
2013-03-07 18:27:00,65.6,55.1,30.11,ESE,103,4.0,9.0,69,0.00,,,0.00,WeatherCatV1.14B232,2013-03-08 00:27:00,
2013-03-07 18:30:00,63.1,54.3,30.12,East,82,4.0,5.0,73,0.00,,,0.00,WeatherCatV1.24B11,2013-03-08 00:30:00,
2013-03-07 18:32:00,65.5,55.1,30.11,East,96,2.0,8.0,69,0.00,,,0.00,WeatherCatV1.14B232,2013-03-08 00:32:00,
2013-03-07 18:35:00,62.9,54.1,30.13,East,97,4.0,8.0,73,0.00,,,0.00,WeatherCatV1.24B11,2013-03-08 00:35:00,
2013-03-07 18:37:00,65.3,55.3,30.11,ESE,122,2.0,7.0,70,0.00,,,0.00,WeatherCatV1.14B232,2013-03-08 00:37:00,
2013-03-07 18:40:00,62.8,54.4,30.13,East,94,5.0,9.0,74,0.00,,,0.00,WeatherCatV1.24B11,2013-03-08 00:40:00,
2013-03-07 18:42:00,65.2,55.2,30.12,East,94,6.0,12.0,70,0.00,,,0.00,WeatherCatV1.14B232,2013-03-08 00:42:00,
2013-03-07 18:45:00,62.7,54.3,30.13,ESE,105,5.0,8.0,74,0.00,,,0.00,WeatherCatV1.24B11,2013-03-08 00:45:00,
2013-03-07 18:47:00,65.2,55.2,30.13,ESE,117,7.0,11.0,70,0.00,,,0.00,WeatherCatV1.14B232,2013-03-08 00:47:00,
2013-03-07 18:50:00,62.7,54.3,30.14,ESE,109,5.0,7.0,74,0.00,,,0.00,WeatherCatV1.24B11,2013-03-08 00:50:00,
2013-03-07 18:52:00,65.0,55.0,30.13,East,96,3.0,11.0,70,0.00,,,0.00,WeatherCatV1.14B232,2013-03-08 00:52:00,
2013-03-07 18:55:00,62.7,54.3,30.13,ESE,105,4.0,8.0,74,0.00,,,0.00,WeatherCatV1.24B11,2013-03-08 00:55:00,
2013-03-07 18:57:00,65.0,55.0,30.12,East,88,6.0,11.0,70,0.00,,,0.00,WeatherCatV1.14B232,2013-03-08 00:57:00,
2013-03-07 19:00:00,62.6,54.2,30.13,ESE,107,4.0,9.0,74,0.00,,,0.00,WeatherCatV1.24B11,2013-03-08 01:00:00,
2013-03-07 19:02:00,64.8,55.2,30.12,SSE,161,6.0,7.0,71,0.00,,,0.00,WeatherCatV1.14B232,2013-03-08 01:02:00,
2013-03-07 19:05:00,62.5,54.1,30.14,ESE,109,5.0,9.0,74,0.00,,,0.00,WeatherCatV1.24B11,2013-03-08 01:05:00,
2013-03-07 19:07:00,64.7,55.1,30.12,ESE,103,7.0,9.0,71,0.00,,,0.00,WeatherCatV1.14B232,2013-03-08 01:07:00,
2013-03-07 19:10:00,62.4,54.0,30.14,ESE,113,6.0,8.0,74,0.00,,,0.00,WeatherCatV1.24B11,2013-03-08 01:10:00,
2013-03-07 19:12:00,64.4,54.8,30.12,East,90,8.0,12.0,71,0.00,,,0.00,WeatherCatV1.14B232,2013-03-08 01:12:00,
2013-03-07 19:15:00,62.3,53.9,30.14,ESE,112,5.0,11.0,74,0.00,,,0.00,WeatherCatV1.24B11,2013-03-08 01:15:00,
2013-03-07 19:17:00,64.3,54.7,30.12,ESE,109,0.0,6.0,71,0.00,,,0.00,WeatherCatV1.14B232,2013-03-08 01:17:00,
2013-03-07 19:20:00,62.2,53.8,30.14,ESE,108,5.0,9.0,74,0.00,,,0.00,WeatherCatV1.24B11,2013-03-08 01:20:00,
2013-03-07 19:22:00,64.1,54.9,30.12,SE,129,3.0,10.0,72,0.00,,,0.00,WeatherCatV1.14B232,2013-03-08 01:22:00,
2013-03-07 19:25:00,62.1,53.7,30.14,ESE,111,5.0,8.0,74,0.00,,,0.00,WeatherCatV1.24B11,2013-03-08 01:25:00,
2013-03-07 19:27:00,63.9,54.7,30.12,ESE,107,4.0,9.0,72,0.00,,,0.00,WeatherCatV1.14B232,2013-03-08 01:27:00,
2013-03-07 19:30:00,62.1,54.1,30.14,ESE,111,4.0,8.0,75,0.00,,,0.00,WeatherCatV1.24B11,2013-03-08 01:30:00,
2013-03-07 19:32:00,63.7,54.5,30.12,ESE,116,5.0,10.0,72,0.00,,,0.00,WeatherCatV1.14B232,2013-03-08 01:32:00,
2013-03-07 19:35:00,62.0,54.0,30.15,East,97,4.0,6.0,75,0.00,,,0.00,WeatherCatV1.24B11,2013-03-08 01:35:00,
2013-03-07 19:37:00,63.5,54.7,30.13,East,94,5.0,10.0,73,0.00,,,0.00,WeatherCatV1.14B232,2013-03-08 01:37:00,
2013-03-07 19:40:00,62.0,54.0,30.14,East,101,3.0,3.0,75,0.00,,,0.00,WeatherCatV1.24B11,2013-03-08 01:40:00,
2013-03-07 19:42:00,63.2,54.4,30.12,East,81,2.0,15.0,73,0.00,,,0.00,WeatherCatV1.14B232,2013-03-08 01:42:00,
2013-03-07 19:45:00,61.9,53.9,30.14,ESE,104,3.0,5.0,75,0.00,,,0.00,WeatherCatV1.24B11,2013-03-08 01:45:00,
2013-03-07 19:47:00,63.0,54.2,30.12,East,89,8.0,9.0,73,0.00,,,0.00,WeatherCatV1.14B232,2013-03-08 01:47:00,
2013-03-07 19:50:00,61.8,53.8,30.14,ESE,109,4.0,7.0,75,0.00,,,0.00,WeatherCatV1.24B11,2013-03-08 01:50:00,
2013-03-07 19:52:00,62.9,54.1,30.13,East,97,6.0,10.0,73,0.00,,,0.00,WeatherCatV1.14B232,2013-03-08 01:52:00,
2013-03-07 19:55:00,61.8,53.8,30.14,ESE,104,4.0,7.0,75,0.00,,,0.00,WeatherCatV1.24B11,2013-03-08 01:55:00,
2013-03-07 19:57:00,62.8,54.4,30.13,ESE,117,2.0,9.0,74,0.00,,,0.00,WeatherCatV1.14B232,2013-03-08 01:57:00,
2013-03-07 20:00:00,61.7,53.7,30.15,ESE,103,4.0,7.0,75,0.00,,,0.00,WeatherCatV1.24B11,2013-03-08 02:00:00,
2013-03-07 20:02:00,62.7,54.3,30.14,ESE,115,8.0,11.0,74,0.00,,,0.00,WeatherCatV1.14B232,2013-03-08 02:02:00,
2013-03-07 20:05:00,61.7,53.7,30.15,ESE,106,4.0,10.0,75,0.00,,,0.00,WeatherCatV1.24B11,2013-03-08 02:05:00,
2013-03-07 20:07:00,62.7,54.3,30.14,ESE,105,3.0,8.0,74,0.00,,,0.00,WeatherCatV1.14B232,2013-03-08 02:07:00,
2013-03-07 20:10:00,61.7,53.7,30.15,East,97,3.0,8.0,75,0.00,,,0.00,WeatherCatV1.24B11,2013-03-08 02:10:00,
2013-03-07 20:12:00,62.6,54.2,30.13,ESE,111,5.0,11.0,74,0.00,,,0.00,WeatherCatV1.14B232,2013-03-08 02:12:00,
2013-03-07 20:15:00,61.7,53.7,30.15,ESE,111,3.0,6.0,75,0.00,,,0.00,WeatherCatV1.24B11,2013-03-08 02:15:00,
2013-03-07 20:17:00,62.5,54.1,30.13,East,95,6.0,9.0,74,0.00,,,0.00,WeatherCatV1.14B232,2013-03-08 02:17:00,
2013-03-07 20:20:00,61.6,53.6,30.15,ESE,112,3.0,3.0,75,0.00,,,0.00,WeatherCatV1.24B11,2013-03-08 02:20:00,
2013-03-07 20:22:00,62.4,54.0,30.14,SE,131,7.0,10.0,74,0.00,,,0.00,WeatherCatV1.14B232,2013-03-08 02:22:00,
2013-03-07 20:25:00,61.6,53.6,30.15,ESE,106,3.0,7.0,75,0.00,,,0.00,WeatherCatV1.24B11,2013-03-08 02:25:00,
2013-03-07 20:27:00,62.3,53.9,30.14,ESE,121,2.0,6.0,74,0.00,,,0.00,WeatherCatV1.14B232,2013-03-08 02:27:00,
2013-03-07 20:30:00,61.6,53.6,30.15,ESE,105,4.0,5.0,75,0.00,,,0.00,WeatherCatV1.24B11,2013-03-08 02:30:00,
2013-03-07 20:32:00,62.2,53.8,30.14,SE,142,5.0,9.0,74,0.00,,,0.00,WeatherCatV1.14B232,2013-03-08 02:32:00,
2013-03-07 20:35:00,61.6,53.6,30.15,East,101,4.0,8.0,75,0.00,,,0.00,WeatherCatV1.24B11,2013-03-08 02:35:00,
2013-03-07 20:37:00,62.1,53.7,30.14,SE,125,2.0,7.0,74,0.00,,,0.00,WeatherCatV1.14B232,2013-03-08 02:37:00,
2013-03-07 20:40:00,61.6,53.6,30.15,ESE,105,4.0,8.0,75,0.00,,,0.00,WeatherCatV1.24B11,2013-03-08 02:40:00,
2013-03-07 20:42:00,62.1,54.1,30.14,ESE,117,4.0,9.0,75,0.00,,,0.00,WeatherCatV1.14B232,2013-03-08 02:42:00,
2013-03-07 20:45:00,61.5,53.5,30.15,ESE,106,4.0,14.0,75,0.00,,,0.00,WeatherCatV1.24B11,2013-03-08 02:45:00,
2013-03-07 20:47:00,62.0,54.0,30.15,East,98,3.0,8.0,75,0.00,,,0.00,WeatherCatV1.14B232,2013-03-08 02:47:00,
2013-03-07 20:50:00,61.5,53.5,30.15,ESE,106,5.0,9.0,75,0.00,,,0.00,WeatherCatV1.24B11,2013-03-08 02:50:00,
2013-03-07 20:52:00,62.0,54.0,30.14,East,92,3.0,7.0,75,0.00,,,0.00,WeatherCatV1.14B232,2013-03-08 02:52:00,
2013-03-07 20:55:00,61.5,53.5,30.15,ESE,109,5.0,8.0,75,0.00,,,0.00,WeatherCatV1.24B11,2013-03-08 02:55:00,
2013-03-07 20:57:00,62.0,54.0,30.14,ESE,115,5.0,6.0,75,0.00,,,0.00,WeatherCatV1.14B232,2013-03-08 02:57:00,
2013-03-07 21:00:00,61.4,53.4,30.15,ESE,113,4.0,7.0,75,0.00,,,0.00,WeatherCatV1.24B11,2013-03-08 03:00:00,
2013-03-07 21:02:00,61.9,53.9,30.14,East,94,7.0,10.0,75,0.00,,,0.00,WeatherCatV1.14B232,2013-03-08 03:02:00,
2013-03-07 21:05:00,61.4,53.4,30.15,ESE,115,4.0,7.0,75,0.00,,,0.00,WeatherCatV1.24B11,2013-03-08 03:05:00,
2013-03-07 21:07:00,61.8,53.8,30.14,ESE,121,3.0,8.0,75,0.00,,,0.00,WeatherCatV1.14B232,2013-03-08 03:07:00,
2013-03-07 21:10:00,61.4,53.4,30.15,ESE,118,5.0,11.0,75,0.00,,,0.00,WeatherCatV1.24B11,2013-03-08 03:10:00,
2013-03-07 21:12:00,61.8,53.8,30.14,ESE,113,5.0,9.0,75,0.00,,,0.00,WeatherCatV1.14B232,2013-03-08 03:12:00,
2013-03-07 21:15:00,61.4,53.4,30.14,ESE,118,5.0,10.0,75,0.00,,,0.00,WeatherCatV1.24B11,2013-03-08 03:15:00,
2013-03-07 21:17:00,61.7,53.7,30.15,ESE,118,3.0,10.0,75,0.00,,,0.00,WeatherCatV1.14B232,2013-03-08 03:17:00,
2013-03-07 21:20:00,61.4,53.4,30.14,ESE,118,4.0,13.0,75,0.00,,,0.00,WeatherCatV1.24B11,2013-03-08 03:20:00,
2013-03-07 21:22:00,61.7,53.7,30.15,East,96,6.0,6.0,75,0.00,,,0.00,WeatherCatV1.14B232,2013-03-08 03:22:00,
2013-03-07 21:25:00,61.3,53.3,30.15,ESE,110,4.0,9.0,75,0.00,,,0.00,WeatherCatV1.24B11,2013-03-08 03:25:00,
2013-03-07 21:27:00,61.7,53.7,30.15,SE,128,2.0,7.0,75,0.00,,,0.00,WeatherCatV1.14B232,2013-03-08 03:27:00,
2013-03-07 21:30:00,61.3,53.3,30.15,ESE,106,4.0,8.0,75,0.00,,,0.00,WeatherCatV1.24B11,2013-03-08 03:30:00,
2013-03-07 21:32:00,61.7,53.7,30.15,SE,132,4.0,7.0,75,0.00,,,0.00,WeatherCatV1.14B232,2013-03-08 03:32:00,
2013-03-07 21:35:00,61.3,53.7,30.14,East,97,3.0,11.0,76,0.00,,,0.00,WeatherCatV1.24B11,2013-03-08 03:35:00,
2013-03-07 21:37:00,61.6,53.6,30.15,East,100,3.0,10.0,75,0.00,,,0.00,WeatherCatV1.14B232,2013-03-08 03:37:00,
2013-03-07 21:40:00,61.2,53.6,30.13,ESE,107,3.0,14.0,76,0.00,,,0.00,WeatherCatV1.24B11,2013-03-08 03:40:00,
2013-03-07 21:42:00,61.6,53.6,30.15,East,98,3.0,5.0,75,0.00,,,0.00,WeatherCatV1.14B232,2013-03-08 03:42:00,
2013-03-07 21:45:00,61.1,53.5,30.13,ESE,109,4.0,8.0,76,0.00,,,0.00,WeatherCatV1.24B11,2013-03-08 03:45:00,
2013-03-07 21:47:00,61.6,53.6,30.15,East,86,3.0,9.0,75,0.00,,,0.00,WeatherCatV1.14B232,2013-03-08 03:47:00,
2013-03-07 21:50:00,61.1,53.5,30.12,ESE,105,4.0,10.0,76,0.00,,,0.00,WeatherCatV1.24B11,2013-03-08 03:50:00,
2013-03-07 21:52:00,61.6,53.6,30.15,East,95,0.0,11.0,75,0.00,,,0.00,WeatherCatV1.14B232,2013-03-08 03:52:00,
2013-03-07 21:55:00,61.0,53.4,30.12,ESE,108,4.0,4.0,76,0.00,,,0.00,WeatherCatV1.24B11,2013-03-08 03:55:00,
2013-03-07 21:57:00,61.5,53.5,30.15,ESE,105,3.0,4.0,75,0.00,,,0.00,WeatherCatV1.14B232,2013-03-08 03:57:00,
2013-03-07 22:00:00,60.8,53.5,30.12,ESE,105,4.0,9.0,77,0.00,,,0.00,WeatherCatV1.24B11,2013-03-08 04:00:00,
2013-03-07 22:02:00,61.5,53.5,30.16,ESE,105,4.0,9.0,75,0.00,,,0.00,WeatherCatV1.14B232,2013-03-08 04:02:00,
2013-03-07 22:05:00,60.8,53.5,30.12,ESE,109,4.0,4.0,77,0.00,,,0.00,WeatherCatV1.24B11,2013-03-08 04:05:00,
2013-03-07 22:07:00,61.4,53.4,30.15,ESE,110,2.0,10.0,75,0.00,,,0.00,WeatherCatV1.14B232,2013-03-08 04:07:00,
2013-03-07 22:10:00,60.8,53.5,30.12,ESE,104,5.0,9.0,77,0.00,,,0.00,WeatherCatV1.24B11,2013-03-08 04:10:00,
2013-03-07 22:12:00,61.4,53.4,30.15,East,95,5.0,9.0,75,0.00,,,0.00,WeatherCatV1.14B232,2013-03-08 04:12:00,
2013-03-07 22:15:00,60.8,53.5,30.13,East,99,5.0,8.0,77,0.00,,,0.00,WeatherCatV1.24B11,2013-03-08 04:15:00,
2013-03-07 22:17:00,61.4,53.4,30.15,SE,130,2.0,10.0,75,0.00,,,0.00,WeatherCatV1.14B232,2013-03-08 04:17:00,
2013-03-07 22:20:00,60.8,53.9,30.13,ESE,102,4.0,10.0,78,0.00,,,0.00,WeatherCatV1.24B11,2013-03-08 04:20:00,
2013-03-07 22:22:00,61.4,53.4,30.15,East,92,8.0,11.0,75,0.00,,,0.00,WeatherCatV1.14B232,2013-03-08 04:22:00,
2013-03-07 22:25:00,60.7,53.8,30.13,ESE,107,4.0,8.0,78,0.00,,,0.00,WeatherCatV1.24B11,2013-03-08 04:25:00,
2013-03-07 22:27:00,61.4,53.4,30.15,ESE,109,10.0,13.0,75,0.00,,,0.00,WeatherCatV1.14B232,2013-03-08 04:27:00,
2013-03-07 22:30:00,60.7,53.8,30.13,ESE,118,4.0,7.0,78,0.00,,,0.00,WeatherCatV1.24B11,2013-03-08 04:30:00,
2013-03-07 22:32:00,61.3,53.3,30.14,ESE,112,8.0,9.0,75,0.00,,,0.00,WeatherCatV1.14B232,2013-03-08 04:32:00,
2013-03-07 22:35:00,60.6,53.7,30.13,ESE,109,3.0,8.0,78,0.00,,,0.00,WeatherCatV1.24B11,2013-03-08 04:35:00,
2013-03-07 22:37:00,61.3,53.3,30.14,ESE,112,7.0,11.0,75,0.00,,,0.00,WeatherCatV1.14B232,2013-03-08 04:37:00,
2013-03-07 22:40:00,60.6,53.7,30.13,ESE,110,3.0,3.0,78,0.00,,,0.00,WeatherCatV1.24B11,2013-03-08 04:40:00,
2013-03-07 22:42:00,61.3,53.3,30.15,East,89,0.0,7.0,75,0.00,,,0.00,WeatherCatV1.14B232,2013-03-08 04:42:00,
2013-03-07 22:45:00,60.6,53.7,30.13,ESE,107,2.0,3.0,78,0.00,,,0.00,WeatherCatV1.24B11,2013-03-08 04:45:00,
2013-03-07 22:47:00,61.3,53.7,30.15,East,88,3.0,9.0,76,0.00,,,0.00,WeatherCatV1.14B232,2013-03-08 04:47:00,
2013-03-07 22:50:00,60.6,54.0,30.13,ESE,117,2.0,8.0,79,0.00,,,0.00,WeatherCatV1.24B11,2013-03-08 04:50:00,
2013-03-07 22:52:00,61.2,53.6,30.13,ESE,120,4.0,5.0,76,0.00,,,0.00,WeatherCatV1.14B232,2013-03-08 04:52:00,
2013-03-07 22:55:00,60.6,54.0,30.12,ESE,105,3.0,6.0,79,0.00,,,0.00,WeatherCatV1.24B11,2013-03-08 04:55:00,
2013-03-07 22:57:00,61.1,53.5,30.13,SE,126,5.0,5.0,76,0.00,,,0.00,WeatherCatV1.14B232,2013-03-08 04:57:00,
2013-03-07 23:00:00,61.1,53.5,30.13,ESE,111,8.0,8.0,76,0.00,,,0.00,WeatherCatV1.14B232,2013-03-08 05:00:00,
2013-03-07 23:05:00,61.1,53.5,30.12,ESE,106,3.0,10.0,76,0.00,,,0.00,WeatherCatV1.14B232,2013-03-08 05:05:00,
2013-03-07 23:10:00,61.0,53.4,30.12,SE,130,2.0,14.0,76,0.00,,,0.00,WeatherCatV1.14B232,2013-03-08 05:10:00,
2013-03-07 23:15:00,60.8,53.5,30.12,ESE,107,2.0,9.0,77,0.00,,,0.00,WeatherCatV1.14B232,2013-03-08 05:15:00,
2013-03-07 23:20:00,60.8,53.5,30.12,ESE,105,5.0,10.0,77,0.00,,,0.00,WeatherCatV1.14B232,2013-03-08 05:20:00,
2013-03-07 23:25:00,60.8,53.5,30.12,ESE,119,9.0,9.0,77,0.00,,,0.00,WeatherCatV1.14B232,2013-03-08 05:25:00,
2013-03-07 23:30:00,60.8,53.5,30.13,ENE,69,1.0,3.0,77,0.00,,,0.00,WeatherCatV1.14B232,2013-03-08 05:30:00,
2013-03-07 23:32:00,60.8,53.9,30.13,SE,129,4.0,8.0,78,0.00,,,0.00,WeatherCatV1.14B232,2013-03-08 05:32:00,
2013-03-07 23:35:00,60.7,54.5,30.11,ESE,104,4.0,7.0,80,0.00,,,0.00,WeatherCatV1.24B11,2013-03-08 05:35:00,
2013-03-07 23:37:00,60.8,53.9,30.13,ESE,103,8.0,9.0,78,0.00,,,0.00,WeatherCatV1.14B232,2013-03-08 05:37:00,
2013-03-07 23:40:00,60.6,54.4,30.11,ESE,112,3.0,7.0,80,0.00,,,0.00,WeatherCatV1.24B11,2013-03-08 05:40:00,
2013-03-07 23:42:00,60.7,53.8,30.13,ESE,119,5.0,5.0,78,0.00,,,0.00,WeatherCatV1.14B232,2013-03-08 05:42:00,
2013-03-07 23:45:00,60.5,54.6,30.11,ESE,104,2.0,7.0,81,0.00,,,0.00,WeatherCatV1.24B11,2013-03-08 05:45:00,
2013-03-07 23:47:00,60.7,53.8,30.13,SE,125,6.0,10.0,78,0.00,,,0.00,WeatherCatV1.14B232,2013-03-08 05:47:00,
2013-03-07 23:50:00,60.5,54.6,30.11,ESE,103,3.0,10.0,81,0.00,,,0.00,WeatherCatV1.24B11,2013-03-08 05:50:00,
2013-03-07 23:52:00,60.6,53.7,30.13,ESE,111,1.0,8.0,78,0.00,,,0.00,WeatherCatV1.14B232,2013-03-08 05:52:00,
2013-03-07 23:55:00,60.4,54.5,30.11,East,101,3.0,7.0,81,0.00,,,0.00,WeatherCatV1.24B11,2013-03-08 05:55:00,
2013-03-07 23:57:00,60.5,53.6,30.13,ESE,105,1.0,4.0,78,0.00,,,0.00,WeatherCatV1.14B232,2013-03-08 05:57:00,